| Date | Time | Temp. (oF) | Dew Point (oF) | Rel. Hum. (%) | Press. (in.) | Wind Dir. | Wind Speed (mph) | Hourly Rainfall (in.) |
|
|---|---|---|---|---|---|---|---|---|---|
| 1 | 12/01 | 00:00 | 40 | 37 | 90 | 30.16 | E | 2 | 0.00 |
| 2 | 11/30 | 23:00 | 40 | 37 | 89 | 30.18 | E | 5 | 0.02 |
| 3 | 11/30 | 22:00 | 40 | 36 | 87 | 30.20 | E | 4 | 0.01 |
| 4 | 11/30 | 21:00 | 41 | 34 | 79 | 30.22 | ENE | 4 | 0.00 |
| 5 | 11/30 | 20:00 | 40 | 33 | 78 | 30.23 | ENE | 3 | 0.00 |
| 6 | 11/30 | 19:00 | 40 | 33 | 77 | 30.24 | ENE | 3 | 0.00 |
| 7 | 11/30 | 18:00 | 41 | 34 | 78 | 30.25 | E | 4 | 0.00 |
| 8 | 11/30 | 17:00 | 41 | 34 | 76 | 30.25 | ENE | 4 | 0.00 |
| 9 | 11/30 | 16:00 | 41 | 33 | 73 | 30.25 | E | 3 | 0.00 |
| 10 | 11/30 | 15:00 | 41 | 33 | 74 | 30.26 | E | 4 | 0.00 |
| 11 | 11/30 | 14:00 | 41 | 32 | 71 | 30.27 | ESE | 4 | 0.00 |
| 12 | 11/30 | 13:00 | 41 | 31 | 69 | 30.28 | ESE | 3 | 0.00 |
| 13 | 11/30 | 12:00 | 40 | 29 | 67 | 30.30 | E | 4 | 0.00 |
| 14 | 11/30 | 11:00 | 39 | 28 | 66 | 30.33 | E | 6 | 0.00 |
| 15 | 11/30 | 10:00 | 37 | 26 | 65 | 30.33 | SSE | 6 | 0.00 |
| 16 | 11/30 | 09:00 | 34 | 23 | 66 | 30.35 | E | 5 | 0.00 |
| 17 | 11/30 | 08:00 | 32 | 23 | 71 | 30.34 | ESE | 5 | 0.00 |
| 18 | 11/30 | 07:00 | 30 | 21 | 71 | 30.32 | E | 4 | 0.00 |
| 19 | 11/30 | 06:00 | 32 | 23 | 70 | 30.31 | E | 2 | 0.00 |
| 20 | 11/30 | 05:00 | 32 | 23 | 70 | 30.31 | ENE | 3 | 0.00 |
| 21 | 11/30 | 04:00 | 33 | 23 | 69 | 30.30 | NE | 2 | 0.00 |
| 22 | 11/30 | 03:00 | 34 | 24 | 67 | 30.31 | ENE | 4 | 0.00 |
| 23 | 11/30 | 02:00 | 34 | 23 | 66 | 30.31 | ENE | 4 | 0.00 |
| 24 | 11/30 | 01:00 | 34 | 23 | 66 | 30.29 | ENE | 5 | 0.00 |